createdAt,value
2023-02-25T00:01:34.394Z,5.95
2023-02-25T00:04:01.213Z,5.26
2023-02-25T00:06:27.865Z,5.73
2023-02-25T00:08:54.922Z,5.69
2023-02-25T00:11:22.830Z,5.82
2023-02-25T00:13:49.507Z,5.44
2023-02-25T00:16:16.927Z,6.18
2023-02-25T00:18:46.922Z,5.95
2023-02-25T00:21:15.895Z,5.40
2023-02-25T00:23:47.635Z,5.68
2023-02-25T00:26:15.192Z,5.55
2023-02-25T00:28:42.209Z,5.96
2023-02-25T00:31:10.935Z,5.73
2023-02-25T00:33:41.758Z,5.57
2023-02-25T00:36:10.341Z,5.64
2023-02-25T00:38:36.859Z,5.33
2023-02-25T00:41:15.084Z,5.41
2023-02-25T00:43:43.407Z,5.62
2023-02-25T00:46:10.913Z,5.38
2023-02-25T00:48:37.730Z,5.75
2023-02-25T00:51:17.672Z,5.98
2023-02-25T00:53:44.498Z,6.01
2023-02-25T00:56:15.912Z,6.36
2023-02-25T00:58:43.774Z,6.19
2023-02-25T01:01:29.012Z,6.50
2023-02-25T01:03:56.916Z,6.65
2023-02-25T01:06:25.562Z,6.43
2023-02-25T01:08:54.079Z,5.85
2023-02-25T01:11:27.082Z,5.71
2023-02-25T01:13:54.622Z,6.60
2023-02-25T01:16:24.308Z,6.22
2023-02-25T01:18:56.191Z,6.43
2023-02-25T01:21:27.578Z,6.58
2023-02-25T01:24:00.469Z,6.41
2023-02-25T01:26:28.987Z,6.10
2023-02-25T01:28:55.889Z,6.15
2023-02-25T01:31:29.343Z,6.45
2023-02-25T01:34:00.459Z,6.51
2023-02-25T01:36:28.228Z,6.18
2023-02-25T01:38:56.042Z,6.33
2023-02-25T01:41:27.087Z,6.20
2023-02-25T01:44:14.632Z,6.15
2023-02-25T01:46:43.792Z,5.77
2023-02-25T01:49:20.352Z,5.84
2023-02-25T01:51:49.579Z,6.00
2023-02-25T01:54:16.440Z,5.85
2023-02-25T01:56:48.223Z,5.91
2023-02-25T01:59:15.702Z,5.53
2023-02-25T02:01:42.718Z,5.85
2023-02-25T02:04:12.136Z,6.05
2023-02-25T02:06:44.164Z,6.12
2023-02-25T02:09:16.757Z,5.93
2023-02-25T02:11:43.358Z,5.93
2023-02-25T02:14:13.463Z,5.90
2023-02-25T02:17:06.990Z,6.15
2023-02-25T02:19:41.966Z,5.92
2023-02-25T02:22:13.021Z,5.35
2023-02-25T02:24:58.873Z,5.88
2023-02-25T02:28:02.482Z,6.00
2023-02-25T02:30:47.899Z,5.59
2023-02-25T02:33:38.671Z,5.94
2023-02-25T02:36:18.644Z,6.08
2023-02-25T02:38:53.028Z,5.60
2023-02-25T02:41:36.693Z,5.29
2023-02-25T02:44:15.439Z,5.74
2023-02-25T02:46:51.817Z,5.53
2023-02-25T02:49:24.405Z,5.37
2023-02-25T02:51:57.193Z,5.60
2023-02-25T02:54:25.701Z,5.51
2023-02-25T02:56:54.224Z,5.23
2023-02-25T02:59:25.638Z,5.66
2023-02-25T03:02:04.329Z,5.38
2023-02-25T03:04:34.869Z,5.63
2023-02-25T03:07:07.576Z,5.42
2023-02-25T03:09:38.329Z,5.22
2023-02-25T03:12:05.007Z,4.92
2023-02-25T03:14:31.474Z,5.43
2023-02-25T03:17:06.705Z,5.57
2023-02-25T03:19:40.481Z,6.04
2023-02-25T03:22:10.603Z,5.90
2023-02-25T03:24:45.607Z,5.91
2023-02-25T03:27:28.512Z,6.26
2023-02-25T03:30:02.202Z,6.20
2023-02-25T03:32:29.792Z,5.97
2023-02-25T03:34:58.068Z,5.92
2023-02-25T03:37:29.678Z,6.04
2023-02-25T03:39:59.710Z,6.05
2023-02-25T03:42:33.068Z,5.80
2023-02-25T03:45:03.889Z,5.68
2023-02-25T03:47:32.967Z,5.66
2023-02-25T03:50:05.878Z,6.00
2023-02-25T03:52:32.476Z,5.88
2023-02-25T03:54:59.019Z,5.91
2023-02-25T03:57:34.734Z,6.01
2023-02-25T04:00:01.349Z,6.07
2023-02-25T04:02:31.357Z,5.73
2023-02-25T04:04:58.541Z,5.77
2023-02-25T04:07:25.147Z,5.37
2023-02-25T04:09:51.588Z,5.99
2023-02-25T04:12:18.040Z,5.14
2023-02-25T04:14:44.631Z,5.89
2023-02-25T04:17:13.082Z,5.71
2023-02-25T04:19:39.645Z,5.98
2023-02-25T04:22:08.055Z,6.23
2023-02-25T04:24:34.554Z,6.41
2023-02-25T04:27:01.787Z,6.01
2023-02-25T04:29:29.193Z,6.05
2023-02-25T04:31:56.021Z,6.62
2023-02-25T04:34:23.217Z,5.88
2023-02-25T04:36:49.997Z,6.35
2023-02-25T04:39:18.052Z,6.37
2023-02-25T04:41:45.024Z,6.11
2023-02-25T04:44:11.772Z,6.02
2023-02-25T04:46:41.929Z,6.01
2023-02-25T04:49:09.718Z,5.65
2023-02-25T04:51:38.289Z,5.57
2023-02-25T04:54:05.162Z,5.96
2023-02-25T04:56:31.686Z,5.98
2023-02-25T04:58:58.462Z,6.06
2023-02-25T05:01:24.950Z,5.91
2023-02-25T05:03:56.707Z,6.18
2023-02-25T05:06:24.828Z,5.79
2023-02-25T05:08:51.512Z,6.00
2023-02-25T05:11:18.926Z,6.08
2023-02-25T05:13:45.852Z,6.36
2023-02-25T05:16:16.623Z,6.32
2023-02-25T05:18:44.973Z,6.40
2023-02-25T05:21:16.508Z,6.09
2023-02-25T05:23:44.441Z,6.09
2023-02-25T05:26:11.765Z,5.66
2023-02-25T05:28:38.520Z,5.54
2023-02-25T05:31:10.512Z,5.48
2023-02-25T05:33:38.541Z,5.66
2023-02-25T05:36:06.995Z,5.60
2023-02-25T05:38:33.879Z,5.21
2023-02-25T05:41:00.998Z,5.28
2023-02-25T05:43:27.494Z,5.14
2023-02-25T05:45:57.990Z,5.36
2023-02-25T05:48:24.636Z,5.30
2023-02-25T05:50:52.017Z,5.29
2023-02-25T05:53:19.453Z,5.09
2023-02-25T05:55:46.577Z,5.14
2023-02-25T05:58:13.451Z,5.32
2023-02-25T06:00:39.945Z,5.41
2023-02-25T06:03:06.794Z,4.98
2023-02-25T06:05:33.311Z,4.86
2023-02-25T06:08:00.006Z,5.39
2023-02-25T06:10:27.102Z,5.50
2023-02-25T06:12:53.651Z,5.26
2023-02-25T06:15:20.133Z,5.52
2023-02-25T06:17:46.588Z,5.23
2023-02-25T06:20:16.470Z,5.08
2023-02-25T06:22:43.482Z,5.50
2023-02-25T06:25:10.265Z,5.27
2023-02-25T06:27:36.802Z,5.75
2023-02-25T06:30:04.314Z,5.37
2023-02-25T06:32:30.930Z,5.40
2023-02-25T06:34:57.534Z,5.28
2023-02-25T06:37:24.046Z,5.46
2023-02-25T06:39:52.555Z,5.52
2023-02-25T06:42:19.448Z,5.66
2023-02-25T06:44:46.105Z,5.42
2023-02-25T06:47:12.658Z,5.45
2023-02-25T06:49:39.377Z,5.55
2023-02-25T06:52:06.125Z,5.40
2023-02-25T06:54:32.801Z,5.28
2023-02-25T06:57:00.720Z,5.71
2023-02-25T06:59:27.437Z,5.96
2023-02-25T07:01:54.062Z,6.19
2023-02-25T07:04:20.662Z,5.70
2023-02-25T07:06:47.441Z,5.61
2023-02-25T07:09:13.931Z,5.80
2023-02-25T07:11:40.522Z,6.03
2023-02-25T07:14:07.105Z,5.32
2023-02-25T07:16:34.642Z,5.61
2023-02-25T07:19:02.372Z,5.46
2023-02-25T07:21:30.999Z,5.77
2023-02-25T07:23:58.385Z,6.13
2023-02-25T07:26:28.334Z,6.04
2023-02-25T07:28:59.606Z,5.82
2023-02-25T07:31:27.966Z,6.01
2023-02-25T07:33:55.085Z,6.21
2023-02-25T07:36:21.785Z,6.95
2023-02-25T07:38:51.132Z,7.14
2023-02-25T07:41:19.413Z,7.75
2023-02-25T07:43:46.311Z,7.72
2023-02-25T07:46:15.771Z,7.84
2023-02-25T07:48:42.481Z,8.16
2023-02-25T07:51:15.551Z,7.42
2023-02-25T07:53:42.031Z,6.83
2023-02-25T07:56:09.233Z,6.84
2023-02-25T07:58:36.802Z,6.61
2023-02-25T08:01:10.004Z,7.21
2023-02-25T08:03:36.901Z,7.59
2023-02-25T08:06:07.843Z,7.33
2023-02-25T08:08:35.672Z,7.54
2023-02-25T08:11:10.633Z,7.40
2023-02-25T08:13:37.759Z,7.66
2023-02-25T08:16:05.983Z,7.60
2023-02-25T08:18:32.588Z,7.23
2023-02-25T08:21:01.369Z,6.78
2023-02-25T08:23:29.189Z,6.72
2023-02-25T08:25:56.712Z,6.97
2023-02-25T08:28:25.027Z,7.02
2023-02-25T08:30:51.930Z,7.41
2023-02-25T08:33:18.620Z,8.58
2023-02-25T08:35:45.226Z,8.59
2023-02-25T08:38:12.866Z,9.26
2023-02-25T08:40:40.215Z,9.67
2023-02-25T08:43:07.587Z,9.74
2023-02-25T08:45:34.849Z,8.38
2023-02-25T08:48:01.320Z,8.29
2023-02-25T08:50:27.969Z,7.93
2023-02-25T08:52:54.581Z,8.21
2023-02-25T08:55:24.666Z,8.41
2023-02-25T08:57:52.564Z,8.75
2023-02-25T09:00:21.107Z,9.14
2023-02-25T09:02:48.118Z,9.33
2023-02-25T09:05:14.579Z,9.05
2023-02-25T09:07:41.101Z,9.37
2023-02-25T09:10:09.202Z,9.04
2023-02-25T09:12:38.154Z,7.83
2023-02-25T09:15:05.478Z,8.43
2023-02-25T09:17:32.119Z,8.53
2023-02-25T09:20:01.217Z,9.21
2023-02-25T09:22:28.465Z,8.86
2023-02-25T09:24:55.746Z,8.76
2023-02-25T09:27:22.386Z,8.98
2023-02-25T09:29:48.994Z,9.22
2023-02-25T09:32:19.680Z,9.83
2023-02-25T09:34:49.046Z,10.74
2023-02-25T09:37:16.850Z,11.72
2023-02-25T09:39:43.617Z,11.56
2023-02-25T09:42:14.321Z,11.36
2023-02-25T09:45:00.929Z,11.70
2023-02-25T09:47:27.489Z,12.80
2023-02-25T09:49:59.465Z,13.42
2023-02-25T09:52:43.585Z,13.31
2023-02-25T09:55:35.977Z,12.73
2023-02-25T09:58:11.565Z,14.26
2023-02-25T10:00:46.175Z,15.67
2023-02-25T10:03:38.416Z,15.42
2023-02-25T10:06:27.688Z,14.52
2023-02-25T10:09:10.135Z,16.37
2023-02-25T10:11:39.610Z,18.60
2023-02-25T10:14:06.345Z,19.49
2023-02-25T10:16:40.043Z,14.70
2023-02-25T10:19:28.736Z,11.90
2023-02-25T10:22:20.186Z,10.81
2023-02-25T10:24:50.396Z,10.18
2023-02-25T10:27:19.503Z,9.20
2023-02-25T10:29:49.766Z,10.10
2023-02-25T10:32:21.229Z,10.09
2023-02-25T10:34:49.373Z,10.92
2023-02-25T10:37:21.188Z,10.71
2023-02-25T10:39:48.665Z,9.34
2023-02-25T10:42:16.389Z,9.74
2023-02-25T10:44:44.668Z,10.17
2023-02-25T10:47:15.691Z,9.60
2023-02-25T10:50:27.610Z,8.67
2023-02-25T10:53:05.583Z,8.33
2023-02-25T10:55:44.394Z,8.29
2023-02-25T10:58:28.425Z,8.59
2023-02-25T11:00:59.598Z,8.71
2023-02-25T11:03:29.508Z,9.05
2023-02-25T11:06:35.628Z,8.65
2023-02-25T11:09:27.064Z,8.20
2023-02-25T11:12:19.818Z,8.33
2023-02-25T11:14:46.624Z,8.04
2023-02-25T11:17:20.154Z,8.17
2023-02-25T11:19:47.482Z,8.17
2023-02-25T11:22:29.642Z,8.27
2023-02-25T11:24:59.691Z,9.60
2023-02-25T11:27:33.761Z,11.58
2023-02-25T11:30:07.966Z,11.99
2023-02-25T11:32:34.942Z,11.70
2023-02-25T11:35:10.300Z,12.08
2023-02-25T11:37:49.522Z,11.98
2023-02-25T11:40:22.702Z,14.94
2023-02-25T11:43:18.611Z,19.32
2023-02-25T11:45:57.610Z,24.71
2023-02-25T11:48:30.089Z,21.53
2023-02-25T11:51:29.248Z,17.27
2023-02-25T11:54:11.283Z,14.78
2023-02-25T11:56:48.646Z,13.78
2023-02-25T11:59:31.773Z,14.79
2023-02-25T12:02:27.650Z,15.81
2023-02-25T12:05:16.715Z,14.13
2023-02-25T12:08:13.334Z,13.25
2023-02-25T12:11:05.399Z,12.62
2023-02-25T12:14:02.707Z,12.32
2023-02-25T12:16:38.330Z,17.89
2023-02-25T12:19:14.153Z,23.31
2023-02-25T12:22:14.721Z,18.43
2023-02-25T12:24:41.172Z,16.76
2023-02-25T12:27:38.771Z,14.37
2023-02-25T12:30:31.512Z,12.15
2023-02-25T12:33:11.874Z,14.80
2023-02-25T12:36:03.844Z,18.33
2023-02-25T12:38:37.546Z,18.08
2023-02-25T12:41:22.979Z,17.18
2023-02-25T12:44:31.552Z,13.97
2023-02-25T12:47:17.606Z,13.08
2023-02-25T12:50:09.199Z,11.86
2023-02-25T12:52:51.493Z,11.31
2023-02-25T12:55:35.506Z,11.44
2023-02-25T12:58:29.217Z,12.16
2023-02-25T13:01:13.962Z,12.00
2023-02-25T13:03:58.837Z,12.02
2023-02-25T13:06:56.985Z,11.95
2023-02-25T13:09:44.746Z,10.93
2023-02-25T13:12:23.135Z,10.21
2023-02-25T13:15:08.948Z,10.07
2023-02-25T13:17:46.320Z,9.98
2023-02-25T13:20:31.260Z,10.53
2023-02-25T13:23:06.596Z,11.14
2023-02-25T13:25:46.849Z,10.40
2023-02-25T13:28:42.857Z,11.25
2023-02-25T13:31:19.203Z,11.84
2023-02-25T13:33:57.901Z,12.22
2023-02-25T13:37:00.030Z,11.60
2023-02-25T13:39:44.593Z,11.21
2023-02-25T13:42:32.531Z,11.05
2023-02-25T13:45:22.814Z,11.45
2023-02-25T13:48:17.368Z,10.90
2023-02-25T13:50:44.187Z,11.34
2023-02-25T13:53:23.750Z,11.51
2023-02-25T13:56:18.351Z,11.81
2023-02-25T13:59:21.982Z,11.20
2023-02-25T14:02:18.784Z,11.00
2023-02-25T14:05:09.106Z,10.47
2023-02-25T14:07:55.330Z,10.49
2023-02-25T14:10:29.239Z,11.88
2023-02-25T14:13:09.794Z,11.46
2023-02-25T14:15:51.751Z,11.13
2023-02-25T14:18:31.091Z,10.90
2023-02-25T14:21:28.074Z,10.30
2023-02-25T14:24:06.633Z,10.14
2023-02-25T14:26:44.236Z,9.64
2023-02-25T14:29:35.649Z,9.87
2023-02-25T14:32:41.353Z,9.37
2023-02-25T14:35:35.670Z,9.16
2023-02-25T14:38:04.983Z,9.05
2023-02-25T14:40:44.174Z,9.37
2023-02-25T14:43:36.169Z,10.00
2023-02-25T14:46:33.627Z,9.64
2023-02-25T14:49:06.100Z,9.70
2023-02-25T14:51:59.377Z,10.01
2023-02-25T14:54:53.863Z,10.13
2023-02-25T14:57:46.135Z,9.94
2023-02-25T15:00:37.556Z,10.23
2023-02-25T15:03:22.367Z,9.76
2023-02-25T15:06:13.271Z,10.40
2023-02-25T15:09:23.552Z,11.33
2023-02-25T15:12:08.806Z,11.17
2023-02-25T15:14:53.642Z,11.35
2023-02-25T15:17:48.123Z,10.37
2023-02-25T15:20:47.522Z,10.09
2023-02-25T15:23:16.482Z,9.63
2023-02-25T15:26:03.641Z,9.60
2023-02-25T15:28:30.460Z,9.39
2023-02-25T15:31:00.378Z,9.17
2023-02-25T15:33:27.359Z,9.46
2023-02-25T15:35:57.418Z,9.11
2023-02-25T15:38:50.190Z,8.95
2023-02-25T15:41:28.822Z,9.54
2023-02-25T15:44:00.132Z,9.34
2023-02-25T15:46:35.861Z,9.03
2023-02-25T15:49:10.300Z,9.26
2023-02-25T15:51:58.179Z,8.88
2023-02-25T15:54:27.729Z,8.92
2023-02-25T15:57:01.165Z,8.92
2023-02-25T15:59:47.529Z,8.67
2023-02-25T16:02:29.153Z,8.48
2023-02-25T16:05:20.580Z,8.74
2023-02-25T16:07:50.319Z,8.83
2023-02-25T16:10:23.580Z,8.78
2023-02-25T16:12:53.765Z,8.71
2023-02-25T16:15:35.167Z,8.86
2023-02-25T16:18:15.968Z,8.90
2023-02-25T16:20:47.230Z,8.50
2023-02-25T16:23:15.154Z,8.78
2023-02-25T16:26:05.580Z,8.81
2023-02-25T16:29:02.735Z,9.24
2023-02-25T16:32:07.243Z,9.18
2023-02-25T16:34:41.540Z,8.97
2023-02-25T16:37:22.986Z,9.07
2023-02-25T16:39:49.759Z,8.31
2023-02-25T16:42:18.112Z,8.26
2023-02-25T16:44:47.539Z,8.10
2023-02-25T16:47:36.640Z,7.93
2023-02-25T16:50:07.761Z,7.91
2023-02-25T16:52:38.556Z,7.82
2023-02-25T16:55:12.310Z,7.81
2023-02-25T16:57:39.439Z,7.63
2023-02-25T17:00:06.208Z,7.38
2023-02-25T17:02:33.601Z,7.67
2023-02-25T17:05:00.050Z,7.63
2023-02-25T17:07:28.051Z,7.53
2023-02-25T17:10:00.797Z,7.34
2023-02-25T17:12:32.240Z,7.15
2023-02-25T17:15:00.891Z,6.50
2023-02-25T17:17:33.075Z,7.01
2023-02-25T17:20:01.102Z,7.53
2023-02-25T17:22:27.872Z,7.44
2023-02-25T17:24:57.081Z,7.02
2023-02-25T17:27:24.368Z,7.08
2023-02-25T17:29:51.257Z,7.11
2023-02-25T17:32:27.187Z,7.43
2023-02-25T17:34:55.934Z,7.73
2023-02-25T17:37:23.145Z,7.60
2023-02-25T17:39:50.183Z,7.59
2023-02-25T17:42:26.988Z,7.85
2023-02-25T17:44:53.484Z,7.90
2023-02-25T17:47:24.416Z,7.46
2023-02-25T17:49:51.212Z,7.26
2023-02-25T17:52:23.222Z,7.08
2023-02-25T17:55:23.824Z,7.18
2023-02-25T17:57:51.320Z,7.19
2023-02-25T18:00:18.609Z,7.46
2023-02-25T18:02:45.401Z,7.42
2023-02-25T18:05:11.939Z,7.38
2023-02-25T18:07:43.089Z,7.37
2023-02-25T18:10:33.334Z,7.13
2023-02-25T18:13:02.207Z,7.30
2023-02-25T18:15:33.665Z,6.84
2023-02-25T18:18:03.639Z,6.74
2023-02-25T18:20:34.346Z,6.76
2023-02-25T18:23:15.616Z,6.81
2023-02-25T18:25:47.951Z,6.60
2023-02-25T18:28:17.440Z,6.77
2023-02-25T18:30:44.795Z,6.42
2023-02-25T18:33:11.809Z,6.65
2023-02-25T18:35:40.180Z,6.85
2023-02-25T18:38:07.116Z,6.74
2023-02-25T18:40:39.411Z,6.67
2023-02-25T18:43:06.981Z,6.97
2023-02-25T18:45:34.543Z,6.74
2023-02-25T18:48:01.705Z,6.87
2023-02-25T18:50:32.450Z,6.77
2023-02-25T18:52:59.885Z,6.63
2023-02-25T18:55:28.762Z,6.86
2023-02-25T18:57:55.631Z,6.41
2023-02-25T19:00:23.751Z,6.76
2023-02-25T19:02:51.304Z,6.75
2023-02-25T19:05:19.995Z,6.62
2023-02-25T19:07:46.895Z,6.74
2023-02-25T19:10:28.618Z,6.54
2023-02-25T19:13:02.777Z,6.61
2023-02-25T19:15:30.176Z,6.44
2023-02-25T19:17:56.898Z,6.51
2023-02-25T19:20:23.624Z,6.40
2023-02-25T19:22:52.603Z,6.47
2023-02-25T19:25:28.341Z,6.36
2023-02-25T19:27:56.247Z,6.13
2023-02-25T19:30:31.145Z,5.96
2023-02-25T19:33:04.406Z,6.17
2023-02-25T19:35:33.778Z,6.13
2023-02-25T19:38:00.794Z,6.21
2023-02-25T19:40:28.998Z,6.10
2023-02-25T19:42:55.877Z,6.18
2023-02-25T19:45:24.042Z,5.97
2023-02-25T19:47:51.230Z,5.91
2023-02-25T19:50:19.769Z,5.53
2023-02-25T19:52:46.744Z,5.67
2023-02-25T19:55:14.430Z,5.81
2023-02-25T19:57:41.687Z,5.84
2023-02-25T20:00:11.664Z,5.72
2023-02-25T20:02:38.585Z,5.70
2023-02-25T20:05:05.888Z,5.54
2023-02-25T20:07:32.968Z,5.21
2023-02-25T20:10:00.475Z,5.55
2023-02-25T20:12:27.144Z,5.54
2023-02-25T20:14:53.731Z,5.59
2023-02-25T20:17:20.312Z,5.45
2023-02-25T20:19:47.671Z,5.72
2023-02-25T20:22:14.384Z,6.11
2023-02-25T20:24:40.902Z,6.28
2023-02-25T20:27:07.428Z,6.55
2023-02-25T20:29:34.149Z,6.71
2023-02-25T20:32:00.846Z,5.37
2023-02-25T20:34:28.120Z,5.20
2023-02-25T20:37:11.124Z,5.15
2023-02-25T20:39:37.570Z,5.55
2023-02-25T20:42:11.194Z,5.33
2023-02-25T20:44:38.408Z,5.73
2023-02-25T20:47:05.913Z,5.14
2023-02-25T20:49:34.869Z,5.56
2023-02-25T20:52:01.691Z,5.70
2023-02-25T20:54:30.793Z,5.69
2023-02-25T20:56:57.433Z,5.54
2023-02-25T20:59:23.908Z,5.87
2023-02-25T21:01:50.457Z,5.88
2023-02-25T21:04:16.997Z,6.09
2023-02-25T21:06:43.612Z,5.64
2023-02-25T21:09:10.326Z,6.04
2023-02-25T21:11:36.919Z,6.04
2023-02-25T21:14:03.682Z,5.98
2023-02-25T21:16:32.253Z,6.34
2023-02-25T21:18:59.027Z,6.42
2023-02-25T21:21:26.821Z,6.67
2023-02-25T21:23:53.528Z,6.41
2023-02-25T21:26:20.128Z,6.46
2023-02-25T21:28:46.683Z,6.37
2023-02-25T21:31:15.453Z,6.52
2023-02-25T21:33:42.353Z,6.50
2023-02-25T21:36:10.312Z,6.52
2023-02-25T21:38:38.971Z,6.58
2023-02-25T21:41:11.420Z,6.01
2023-02-25T21:43:38.783Z,6.39
2023-02-25T21:46:07.719Z,6.26
2023-02-25T21:48:34.547Z,6.16
2023-02-25T21:51:01.330Z,5.94
2023-02-25T21:53:28.335Z,5.44
2023-02-25T21:55:55.800Z,5.62
2023-02-25T21:58:23.006Z,5.25
2023-02-25T22:00:50.342Z,5.64
2023-02-25T22:03:17.156Z,5.67
2023-02-25T22:05:45.850Z,5.66
2023-02-25T22:08:13.214Z,5.66
2023-02-25T22:10:40.848Z,5.62
2023-02-25T22:13:08.428Z,5.57
2023-02-25T22:15:35.454Z,5.39
2023-02-25T22:18:02.074Z,5.05
2023-02-25T22:20:28.939Z,4.97
2023-02-25T22:22:57.971Z,4.85
2023-02-25T22:25:24.520Z,5.13
2023-02-25T22:27:52.078Z,5.20
2023-02-25T22:30:18.912Z,4.71
2023-02-25T22:32:45.665Z,4.93
2023-02-25T22:35:12.282Z,5.06
2023-02-25T22:37:38.842Z,4.99
2023-02-25T22:40:06.161Z,4.84
2023-02-25T22:42:32.743Z,5.09
2023-02-25T22:44:59.221Z,5.02
2023-02-25T22:47:25.910Z,5.01
2023-02-25T22:49:52.483Z,5.02
2023-02-25T22:52:19.082Z,4.64
2023-02-25T22:54:46.084Z,5.02
2023-02-25T22:57:12.986Z,5.08
2023-02-25T22:59:39.551Z,4.33
2023-02-25T23:02:06.111Z,4.97
2023-02-25T23:04:33.348Z,5.12
2023-02-25T23:07:01.049Z,4.94
2023-02-25T23:09:28.008Z,4.89
2023-02-25T23:11:55.159Z,5.00
2023-02-25T23:14:22.000Z,5.09
2023-02-25T23:16:48.587Z,4.89
2023-02-25T23:19:17.983Z,5.03
2023-02-25T23:21:44.639Z,5.21
2023-02-25T23:24:16.216Z,5.25
2023-02-25T23:26:43.704Z,4.72
2023-02-25T23:29:11.700Z,4.55
2023-02-25T23:31:43.056Z,4.35
2023-02-25T23:34:12.894Z,4.57
2023-02-25T23:36:41.244Z,4.92
2023-02-25T23:39:08.572Z,4.31
2023-02-25T23:41:36.166Z,4.74
2023-02-25T23:44:03.590Z,4.41
2023-02-25T23:46:32.100Z,4.77
2023-02-25T23:49:01.382Z,4.84
2023-02-25T23:51:28.667Z,4.78
2023-02-25T23:53:56.699Z,4.91
2023-02-25T23:56:24.206Z,4.99
2023-02-25T23:58:53.661Z,5.08
